Time;durP1;ratioP1;P1;durP2;ratioP2;P2;SDS_P1;SDS_P2;PMS_P1;PMS_P2;Temp;Humidity;BMP_temperature;BMP_pressure;BME280_temperature;BME280_humidity;BME280_pressure;Samples;Min_cycle;Max_cycle;Signal;HPM_P1;HPM_P2
2021/06/15 00:03:55;;;;;;;10.87;9.27;;;;;17.30;101447.00;;;;10492447;28;20698;-77
2021/06/15 00:08:58;;;;;;;13.53;8.33;;;;;17.30;101460.00;;;;10467493;28;20545;-77
2021/06/15 00:13:59;;;;;;;11.80;9.33;;;;;17.20;101458.00;;;;10483458;28;20548;-77
2021/06/15 00:19:01;;;;;;;10.50;9.43;;;;;17.20;101443.00;;;;10466119;28;20640;-78
2021/06/15 00:24:04;;;;;;;13.60;9.83;;;;;17.10;101450.00;;;;10463978;28;20206;-77
2021/06/15 00:29:06;;;;;;;12.93;10.27;;;;;17.10;101447.00;;;;10466220;28;20221;-77
2021/06/15 00:34:08;;;;;;;12.50;10.20;;;;;17.10;101450.00;;;;10466075;28;20214;-77
2021/06/15 00:39:10;;;;;;;13.43;10.77;;;;;17.00;101455.00;;;;10482450;28;20193;-77
2021/06/15 00:44:12;;;;;;;14.53;9.73;;;;;17.00;101436.00;;;;10460233;28;20227;-77
2021/06/15 00:49:15;;;;;;;14.63;9.17;;;;;16.90;101439.00;;;;10506898;28;20216;-78
2021/06/15 00:54:18;;;;;;;13.67;10.67;;;;;16.90;101449.00;;;;10501910;28;20271;-77
2021/06/15 00:59:21;;;;;;;15.37;10.53;;;;;16.80;101442.00;;;;10481900;28;20204;-77
2021/06/15 01:04:24;;;;;;;15.70;10.03;;;;;16.70;101444.00;;;;10481946;28;20664;-77
2021/06/15 01:09:33;;;;;;;13.53;10.60;;;;;16.60;101448.00;;;;10493950;28;20660;-77
2021/06/15 01:14:51;;;;;;;13.73;10.70;;;;;16.50;101446.00;;;;10506807;28;20181;-78
2021/06/15 01:20:02;;;;;;;14.47;10.47;;;;;16.40;101452.00;;;;10523299;28;20191;-77
2021/06/15 01:25:26;;;;;;;17.57;11.67;;;;;16.40;101458.00;;;;10477709;28;20208;-77
2021/06/15 01:30:45;;;;;;;14.27;10.10;;;;;16.30;101468.00;;;;10481573;28;20189;-77
2021/06/15 01:35:50;;;;;;;11.53;9.57;;;;;16.20;101476.00;;;;10496903;28;20232;-77
2021/06/15 01:41:06;;;;;;;14.13;9.33;;;;;16.10;101483.00;;;;10497382;28;20743;-77
2021/06/15 01:46:11;;;;;;;20.17;12.73;;;;;16.00;101488.00;;;;10530373;28;20184;-77
2021/06/15 01:51:16;;;;;;;17.97;10.67;;;;;16.00;101485.00;;;;10496721;28;20185;-77
2021/06/15 01:56:20;;;;;;;18.30;11.83;;;;;15.90;101482.00;;;;10462576;28;20671;-77
2021/06/15 02:01:29;;;;;;;14.47;12.83;;;;;15.90;101479.00;;;;10487611;28;20210;-77
2021/06/15 02:06:37;;;;;;;17.87;13.87;;;;;15.90;101488.00;;;;10454891;28;20203;-77
2021/06/15 02:11:43;;;;;;;21.63;16.33;;;;;15.80;101486.00;;;;10453936;28;20204;-77
2021/06/15 02:17:15;;;;;;;25.20;18.47;;;;;15.80;101494.00;;;;10440566;28;20197;-77
2021/06/15 02:22:47;;;;;;;32.77;20.20;;;;;15.80;101490.00;;;;10473279;28;20573;-77
2021/06/15 02:27:49;;;;;;;32.63;21.00;;;;;15.80;101493.00;;;;10515976;28;20207;-77
2021/06/15 02:33:00;;;;;;;31.90;22.73;;;;;15.80;101502.00;;;;10553480;28;20233;-77
2021/06/15 02:38:07;;;;;;;36.00;24.07;;;;;15.90;101500.00;;;;10552456;28;20200;-77
2021/06/15 02:43:12;;;;;;;29.23;23.93;;;;;15.90;101499.00;;;;10519713;28;20261;-76
2021/06/15 02:48:16;;;;;;;34.97;23.73;;;;;15.90;101499.00;;;;10501641;28;20193;-77
2021/06/15 02:53:30;;;;;;;30.47;23.63;;;;;15.80;101508.00;;;;10487816;28;20192;-77
2021/06/15 02:58:32;;;;;;;36.60;26.67;;;;;15.80;101511.00;;;;10469466;28;20209;-78
2021/06/15 03:03:39;;;;;;;33.03;26.67;;;;;15.80;101508.00;;;;10486746;28;20190;-77
2021/06/15 03:08:42;;;;;;;34.47;26.90;;;;;15.80;101515.00;;;;10469579;28;20219;-77
2021/06/15 03:13:54;;;;;;;40.10;27.83;;;;;15.80;101520.00;;;;10452490;28;20239;-77
2021/06/15 03:19:21;;;;;;;35.77;29.10;;;;;15.70;101520.00;;;;10452649;28;20214;-77
2021/06/15 03:24:26;;;;;;;45.83;31.07;;;;;15.70;101516.00;;;;10444474;28;20193;-77
2021/06/15 03:29:32;;;;;;;42.10;32.43;;;;;15.70;101510.00;;;;10435645;28;20239;-77
2021/06/15 03:34:52;;;;;;;41.90;32.73;;;;;15.70;101517.00;;;;10466894;28;20205;-77
2021/06/15 03:39:58;;;;;;;42.80;32.10;;;;;15.70;101513.00;;;;10450986;28;20300;-78
2021/06/15 03:45:04;;;;;;;45.43;33.47;;;;;15.70;101512.00;;;;10450525;28;20201;-78
2021/06/15 03:50:08;;;;;;;47.57;35.40;;;;;15.80;101518.00;;;;10492349;28;20189;-77
2021/06/15 03:55:13;;;;;;;44.20;34.70;;;;;15.90;101519.00;;;;10478028;28;20225;-78
2021/06/15 04:00:18;;;;;;;47.17;35.63;;;;;15.90;101516.00;;;;10450027;28;20227;-77
2021/06/15 04:05:22;;;;;;;45.37;35.00;;;;;16.00;101520.00;;;;10449732;28;20202;-77
2021/06/15 04:10:25;;;;;;;47.23;36.00;;;;;16.00;101520.00;;;;10466039;28;20207;-77
2021/06/15 04:15:28;;;;;;;48.07;36.00;;;;;16.10;101513.00;;;;10466400;28;20204;-77
2021/06/15 04:20:34;;;;;;;46.10;33.20;;;;;16.30;101517.00;;;;10449557;28;20236;-77
2021/06/15 04:25:39;;;;;;;44.10;31.23;;;;;16.50;101517.00;;;;10502157;28;20192;-77
2021/06/15 04:30:42;;;;;;;40.73;31.13;;;;;16.60;101539.00;;;;10476973;28;20200;-77
2021/06/15 04:35:48;;;;;;;37.97;30.40;;;;;16.70;101548.00;;;;10481781;28;20271;-77
2021/06/15 04:41:02;;;;;;;36.80;30.20;;;;;16.90;101566.00;;;;10464903;28;20240;-77
2021/06/15 04:46:12;;;;;;;38.67;30.43;;;;;17.10;101567.00;;;;10465546;28;20189;-78
2021/06/15 04:51:20;;;;;;;38.63;30.27;;;;;17.40;101557.00;;;;10465584;28;20265;-78
2021/06/15 04:56:22;;;;;;;36.70;28.20;;;;;17.60;101555.00;;;;10450473;28;20223;-78
2021/06/15 05:01:26;;;;;;;38.33;28.67;;;;;17.80;101552.00;;;;10474206;28;20225;-77
2021/06/15 05:06:28;;;;;;;34.77;27.50;;;;;18.10;101555.00;;;;10499131;28;20208;-77
2021/06/15 05:11:36;;;;;;;36.83;28.23;;;;;18.30;101549.00;;;;10474157;28;20216;-78
2021/06/15 05:16:39;;;;;;;35.33;27.17;;;;;18.40;101566.00;;;;10489215;28;20189;-77
2021/06/15 05:22:00;;;;;;;34.33;25.70;;;;;18.60;101580.00;;;;10490531;28;20263;-77
2021/06/15 05:27:03;;;;;;;35.33;25.85;;;;;18.90;101580.00;;;;10463854;28;20198;-77
2021/06/15 05:32:07;;;;;;;31.65;24.45;;;;;19.30;101588.00;;;;10511293;28;20260;-77
2021/06/15 05:37:10;;;;;;;29.75;24.23;;;;;19.70;101585.00;;;;10456462;28;20648;-78
2021/06/15 05:42:12;;;;;;;27.15;22.67;;;;;20.10;101587.00;;;;10456452;28;20224;-77
2021/06/15 05:47:14;;;;;;;25.88;20.88;;;;;20.60;101582.00;;;;10472387;28;20210;-77
2021/06/15 05:52:17;;;;;;;22.98;20.25;;;;;21.00;101589.00;;;;10474702;28;20247;-78
2021/06/15 05:57:19;;;;;;;23.50;19.25;;;;;21.40;101586.00;;;;10472277;28;20198;-78
2021/06/15 06:02:21;;;;;;;20.90;17.50;;;;;21.70;101589.00;;;;10465201;28;20224;-77
2021/06/15 06:12:45;;;;;;;21.98;16.08;;;;;22.00;101603.00;;;;10519978;28;20211;-78
2021/06/15 06:17:47;;;;;;;22.13;16.02;;;;;22.30;101597.00;;;;10489458;28;20228;-78
2021/06/15 06:22:49;;;;;;;20.17;16.58;;;;;22.50;101605.00;;;;10488115;28;20224;-77
2021/06/15 06:27:51;;;;;;;18.17;14.50;;;;;22.90;101615.00;;;;10523498;28;20296;-78
2021/06/15 06:32:53;;;;;;;19.60;14.40;;;;;23.10;101603.00;;;;10512414;28;20692;-78
2021/06/15 06:37:55;;;;;;;19.42;14.95;;;;;23.30;101605.00;;;;10495501;28;20209;-77
2021/06/15 06:42:57;;;;;;;17.45;14.30;;;;;23.70;101604.00;;;;10482956;28;20213;-78
2021/06/15 06:47:59;;;;;;;18.10;13.63;;;;;24.20;101603.00;;;;10511751;28;20238;-78
2021/06/15 06:53:01;;;;;;;15.43;12.77;;;;;24.30;101615.00;;;;10470583;28;20178;-77
2021/06/15 06:58:05;;;;;;;17.05;12.93;;;;;24.40;101617.00;;;;10471886;28;20201;-78
2021/06/15 07:03:07;;;;;;;18.45;12.82;;;;;24.50;101614.00;;;;10517253;28;20235;-78
2021/06/15 07:08:09;;;;;;;17.25;12.15;;;;;24.80;101613.00;;;;10489674;28;20576;-78
2021/06/15 07:13:11;;;;;;;15.50;11.18;;;;;25.20;101607.00;;;;10492646;28;20189;-78
2021/06/15 07:18:13;;;;;;;14.52;10.35;;;;;25.80;101595.00;;;;10475219;28;20644;-78
2021/06/15 07:23:15;;;;;;;12.73;9.73;;;;;26.20;101591.00;;;;10486572;28;20216;-79
2021/06/15 07:28:16;;;;;;;10.80;9.18;;;;;26.40;101596.00;;;;10521755;28;20219;-78
2021/06/15 07:33:18;;;;;;;11.52;7.95;;;;;26.70;101592.00;;;;10483124;28;20305;-77
2021/06/15 07:38:20;;;;;;;9.90;8.85;;;;;27.10;101594.00;;;;10455491;28;20229;-78
2021/06/15 07:43:22;;;;;;;9.90;8.15;;;;;27.40;101600.00;;;;10483304;28;20270;-78
2021/06/15 07:48:24;;;;;;;11.10;7.40;;;;;27.40;101595.00;;;;10476000;28;20421;-78
2021/06/15 07:53:26;;;;;;;10.52;7.88;;;;;27.50;101591.00;;;;10491261;28;20185;-76
2021/06/15 07:58:28;;;;;;;8.77;7.22;;;;;27.80;101581.00;;;;10514224;28;20193;-77
2021/06/15 08:03:30;;;;;;;8.10;5.80;;;;;28.20;101574.00;;;;10498137;28;20213;-77
2021/06/15 08:08:32;;;;;;;6.50;5.75;;;;;28.60;101578.00;;;;10488070;28;20200;-77
2021/06/15 08:13:34;;;;;;;6.72;6.03;;;;;28.70;101556.00;;;;10447905;28;20193;-76
2021/06/15 08:18:36;;;;;;;6.93;5.60;;;;;28.50;101566.00;;;;10478766;28;20574;-77
2021/06/15 08:23:38;;;;;;;6.82;5.00;;;;;28.90;101564.00;;;;10507703;28;20223;-78
2021/06/15 08:28:43;;;;;;;10.13;5.65;;;;;29.30;101559.00;;;;10465200;28;20197;-79
2021/06/15 08:33:45;;;;;;;6.63;5.25;;;;;29.60;101564.00;;;;10455436;28;20572;-78
2021/06/15 08:38:47;;;;;;;5.43;4.90;;;;;29.70;101568.00;;;;10506982;28;20937;-79
2021/06/15 08:43:49;;;;;;;6.95;5.47;;;;;30.30;101564.00;;;;10463547;28;20213;-78
2021/06/15 08:48:51;;;;;;;8.68;5.07;;;;;30.10;101569.00;;;;10459399;28;20814;-77
2021/06/15 08:54:02;;;;;;;6.45;4.30;;;;;30.10;101561.00;;;;10489339;28;20543;-79
2021/06/15 08:59:29;;;;;;;7.40;4.80;;;;;30.20;101559.00;;;;10505986;28;20189;-78
2021/06/15 09:04:32;;;;;;;5.47;3.53;;;;;30.30;101568.00;;;;10448544;28;20197;-78
2021/06/15 09:09:45;;;;;;;5.95;3.55;;;;;30.40;101562.00;;;;10481778;28;20202;-78
2021/06/15 09:14:52;;;;;;;6.65;2.95;;;;;30.80;101555.00;;;;10474018;28;20192;-78
2021/06/15 09:19:56;;;;;;;5.80;3.20;;;;;30.90;101552.00;;;;10467844;28;20189;-78
2021/06/15 09:24:58;;;;;;;3.58;3.22;;;;;30.50;101552.00;;;;10474648;28;20208;-78
2021/06/15 09:30:05;;;;;;;3.47;2.40;;;;;30.40;101546.00;;;;10522162;28;20204;-78
2021/06/15 09:35:16;;;;;;;6.70;2.97;;;;;30.70;101549.00;;;;10479792;28;20217;-78
2021/06/15 09:40:37;;;;;;;2.70;2.40;;;;;31.00;101545.00;;;;10473147;28;20276;-78
2021/06/15 09:45:47;;;;;;;3.90;2.65;;;;;31.50;101545.00;;;;10484665;28;20205;-78
2021/06/15 09:50:57;;;;;;;2.78;2.08;;;;;31.70;101544.00;;;;10472160;28;20224;-78
2021/06/15 09:56:02;;;;;;;3.63;1.65;;;;;32.00;101548.00;;;;10520769;28;20207;-78
2021/06/15 10:01:04;;;;;;;4.05;1.52;;;;;31.70;101547.00;;;;10456774;28;20289;-78
2021/06/15 10:06:06;;;;;;;1.83;1.60;;;;;31.60;101547.00;;;;10464509;28;20591;-78
2021/06/15 10:11:09;;;;;;;2.95;1.60;;;;;31.80;101543.00;;;;10459136;28;20213;-77
2021/06/15 10:16:11;;;;;;;3.17;1.48;;;;;32.00;101539.00;;;;10479968;28;20197;-79
2021/06/15 10:21:17;;;;;;;4.80;1.50;;;;;32.30;101546.00;;;;10480071;28;20219;-79
2021/06/15 10:26:19;;;;;;;1.73;1.63;;;;;32.40;101534.00;;;;10469442;28;20196;-80
2021/06/15 10:31:31;;;;;;;2.70;1.30;;;;;32.40;101527.00;;;;10465816;28;20280;-79
2021/06/15 10:36:43;;;;;;;1.50;1.38;;;;;32.80;101531.00;;;;10488079;28;20208;-80
2021/06/15 10:41:45;;;;;;;2.92;1.75;;;;;32.80;101519.00;;;;10477232;28;20559;-82
2021/06/15 10:46:47;;;;;;;2.40;1.65;;;;;32.30;101513.00;;;;10489375;28;20188;-81
2021/06/15 10:51:49;;;;;;;2.20;2.00;;;;;32.80;101522.00;;;;10488838;28;20236;-81
2021/06/15 10:57:22;;;;;;;2.72;1.85;;;;;32.80;101506.00;;;;10443637;28;20201;-81
2021/06/15 11:02:27;;;;;;;4.22;2.15;;;;;31.90;101519.00;;;;10455454;28;20676;-78
2021/06/15 11:07:38;;;;;;;4.05;1.67;;;;;31.60;101508.00;;;;10487185;28;20266;-78
2021/06/15 11:12:48;;;;;;;2.65;1.80;;;;;31.80;101508.00;;;;10489487;28;20256;-79
2021/06/15 11:17:58;;;;;;;2.88;1.52;;;;;32.20;101501.00;;;;10469310;28;20656;-79
2021/06/15 11:23:22;;;;;;;4.40;1.70;;;;;33.00;101498.00;;;;10528394;28;20541;-79
2021/06/15 11:28:38;;;;;;;2.60;1.60;;;;;33.60;101504.00;;;;10483519;28;20197;-80
2021/06/15 11:33:59;;;;;;;2.40;1.98;;;;;33.10;101498.00;;;;10457844;28;20362;-79
2021/06/15 11:39:31;;;;;;;2.55;1.80;;;;;32.70;101494.00;;;;10479112;28;20280;-78
2021/06/15 11:45:05;;;;;;;3.05;1.98;;;;;32.80;101494.00;;;;10481885;28;20272;-79
2021/06/15 11:50:13;;;;;;;5.13;1.92;;;;;33.00;101495.00;;;;10457441;28;20277;-78
2021/06/15 11:55:15;;;;;;;2.38;1.58;;;;;33.20;101496.00;;;;10513936;28;20859;-79
2021/06/15 12:00:18;;;;;;;3.95;1.80;;;;;33.00;101490.00;;;;10456553;28;20189;-80
2021/06/15 12:05:20;;;;;;;4.68;1.85;;;;;33.30;101492.00;;;;10534149;28;20201;-79
2021/06/15 12:10:24;;;;;;;3.55;1.67;;;;;33.40;101494.00;;;;10526165;28;20275;-79
2021/06/15 12:15:36;;;;;;;4.80;1.98;;;;;33.40;101495.00;;;;10481274;28;20556;-80
2021/06/15 12:20:39;;;;;;;3.63;1.65;;;;;33.50;101485.00;;;;10485799;28;20211;-79
2021/06/15 12:25:41;;;;;;;3.53;1.85;;;;;33.40;101483.00;;;;10513136;28;20201;-79
2021/06/15 12:30:44;;;;;;;4.43;1.67;;;;;33.60;101475.00;;;;10490980;28;20778;-79
2021/06/15 12:35:46;;;;;;;4.68;2.25;;;;;33.70;101483.00;;;;10498286;28;20252;-80
2021/06/15 12:40:48;;;;;;;3.30;2.00;;;;;33.80;101485.00;;;;10500071;28;20196;-79
2021/06/15 12:46:04;;;;;;;4.07;2.05;;;;;33.30;101479.00;;;;10490427;28;20203;-79
2021/06/15 12:51:08;;;;;;;6.55;2.03;;;;;33.80;101472.00;;;;10512984;28;20212;-79
2021/06/15 12:56:21;;;;;;;8.65;2.55;;;;;33.80;101460.00;;;;10467497;28;20204;-80
2021/06/15 13:01:27;;;;;;;4.45;1.92;;;;;34.00;101460.00;;;;10481754;28;20199;-79
2021/06/15 13:06:29;;;;;;;5.28;1.70;;;;;33.70;101457.00;;;;10483076;28;20855;-79
2021/06/15 13:11:31;;;;;;;5.28;1.80;;;;;33.50;101451.00;;;;10464990;28;20624;-79
2021/06/15 13:16:39;;;;;;;6.13;1.75;;;;;33.60;101449.00;;;;10465296;28;20192;-78
2021/06/15 13:21:46;;;;;;;2.88;1.63;;;;;33.70;101446.00;;;;10502481;28;20204;-80
2021/06/15 13:26:51;;;;;;;4.50;2.00;;;;;33.70;101449.00;;;;10490270;28;20201;-79
2021/06/15 13:31:53;;;;;;;2.40;1.85;;;;;34.10;101443.00;;;;10514018;28;20212;-80
2021/06/15 13:37:06;;;;;;;2.80;2.10;;;;;34.70;101434.00;;;;10478347;28;20209;-79
2021/06/15 13:42:08;;;;;;;3.25;1.70;;;;;35.40;101434.00;;;;10470424;28;20185;-80
2021/06/15 13:47:10;;;;;;;3.00;2.47;;;;;35.80;101415.00;;;;10527569;28;20200;-79
2021/06/15 13:52:12;;;;;;;2.15;1.85;;;;;36.70;101421.00;;;;10505384;28;20304;-79
2021/06/15 13:57:14;;;;;;;4.82;2.25;;;;;37.60;101410.00;;;;10483135;28;20195;-79
2021/06/15 14:02:16;;;;;;;6.53;2.13;;;;;37.50;101406.00;;;;10470182;28;20228;-80
2021/06/15 14:07:18;;;;;;;4.25;2.30;;;;;37.90;101405.00;;;;10500113;28;20185;-80
2021/06/15 14:12:20;;;;;;;6.05;2.38;;;;;37.20;101402.00;;;;10483235;28;20676;-80
2021/06/15 14:17:22;;;;;;;4.05;2.03;;;;;37.20;101398.00;;;;10503830;28;20255;-80
2021/06/15 14:22:24;;;;;;;2.22;2.03;;;;;36.00;101400.00;;;;10469080;28;20234;-79
2021/06/15 14:27:26;;;;;;;3.53;1.92;;;;;37.30;101390.00;;;;10503290;28;20220;-80
2021/06/15 14:32:28;;;;;;;3.40;2.25;;;;;38.00;101387.00;;;;10485678;28;20224;-80
2021/06/15 14:37:30;;;;;;;3.95;2.33;;;;;36.50;101382.00;;;;10488860;28;20821;-80
2021/06/15 14:42:32;;;;;;;5.25;2.15;;;;;37.00;101387.00;;;;10483364;28;20198;-80
2021/06/15 14:47:35;;;;;;;2.60;1.95;;;;;37.60;101376.00;;;;10495947;28;20197;-81
2021/06/15 14:52:37;;;;;;;4.95;2.00;;;;;38.10;101380.00;;;;10468922;28;20209;-80
2021/06/15 14:57:40;;;;;;;5.88;2.10;;;;;36.30;101367.00;;;;10487672;28;20202;-79
2021/06/15 15:02:42;;;;;;;3.00;2.10;;;;;38.80;101370.00;;;;10481026;28;20203;-80
2021/06/15 15:07:44;;;;;;;5.18;2.53;;;;;39.00;101368.00;;;;10506445;28;20189;-80
2021/06/15 15:12:53;;;;;;;2.42;2.15;;;;;39.70;101356.00;;;;10484874;28;20241;-79
2021/06/15 15:18:12;;;;;;;2.85;2.15;;;;;39.10;101352.00;;;;10467166;28;20197;-81
2021/06/15 15:23:14;;;;;;;3.85;2.40;;;;;39.10;101362.00;;;;10494571;28;20193;-79
2021/06/15 15:28:16;;;;;;;6.63;2.05;;;;;36.60;101338.00;;;;10493598;28;20246;-80
2021/06/15 15:33:19;;;;;;;4.05;2.22;;;;;38.90;101333.00;;;;10489123;28;20249;-80
2021/06/15 15:38:22;;;;;;;2.92;2.20;;;;;36.10;101347.00;;;;10505283;28;20193;-80
2021/06/15 15:43:25;;;;;;;3.67;2.28;;;;;34.60;101326.00;;;;10563134;28;20682;-80
2021/06/15 15:48:33;;;;;;;2.38;1.90;;;;;36.50;101331.00;;;;10508305;28;20548;-79
2021/06/15 15:53:37;;;;;;;3.42;2.33;;;;;34.80;101339.00;;;;10475413;28;20200;-79
2021/06/15 15:58:40;;;;;;;2.53;2.20;;;;;32.00;101342.00;;;;10494973;28;20201;-79
2021/06/15 16:03:42;;;;;;;4.82;2.17;;;;;31.20;101329.00;;;;10463691;28;20698;-79
2021/06/15 16:08:44;;;;;;;3.63;2.50;;;;;31.40;101314.00;;;;10523843;28;20194;-78
2021/06/15 16:13:46;;;;;;;3.75;2.78;;;;;30.10;101314.00;;;;10504449;28;20205;-79
2021/06/15 16:18:48;;;;;;;8.68;2.40;;;;;30.00;101308.00;;;;10470571;28;20232;-79
2021/06/15 16:23:50;;;;;;;4.13;2.17;;;;;30.20;101308.00;;;;10454783;28;20186;-79
2021/06/15 16:28:52;;;;;;;9.00;2.50;;;;;29.80;101303.00;;;;10497326;28;20208;-79
2021/06/15 16:33:53;;;;;;;4.07;2.58;;;;;29.60;101305.00;;;;10504785;28;20256;-82
2021/06/15 16:38:56;;;;;;;4.22;2.50;;;;;29.80;101305.00;;;;10471394;28;20235;-77
2021/06/15 16:43:58;;;;;;;4.55;3.00;;;;;29.20;101306.00;;;;10447544;28;20190;-76
2021/06/15 16:49:03;;;;;;;4.30;2.53;;;;;28.80;101304.00;;;;10463857;28;20193;-76
2021/06/15 16:54:05;;;;;;;2.75;2.47;;;;;29.00;101299.00;;;;10462503;28;20212;-77
2021/06/15 16:59:08;;;;;;;3.85;2.47;;;;;29.30;101302.00;;;;10479837;28;20201;-77
2021/06/15 17:04:09;;;;;;;5.05;2.58;;;;;29.40;101295.00;;;;10461746;28;20194;-77
2021/06/15 17:09:11;;;;;;;5.43;2.70;;;;;29.70;101296.00;;;;10463232;28;20201;-78
2021/06/15 17:14:13;;;;;;;6.65;3.17;;;;;29.60;101297.00;;;;10482510;28;20213;-77
2021/06/15 17:19:15;;;;;;;6.72;2.80;;;;;29.10;101281.00;;;;10480109;28;20197;-76
2021/06/15 17:24:18;;;;;;;6.38;2.95;;;;;29.00;101286.00;;;;10490817;28;20194;-76
2021/06/15 17:29:21;;;;;;;4.88;2.65;;;;;28.70;101287.00;;;;10514581;28;20284;-79
2021/06/15 17:34:24;;;;;;;9.75;2.65;;;;;28.40;101288.00;;;;10506895;28;20220;-78
2021/06/15 17:39:26;;;;;;;5.53;2.70;;;;;28.20;101283.00;;;;10490513;28;20559;-78
2021/06/15 17:44:28;;;;;;;3.72;2.42;;;;;28.00;101276.00;;;;10507255;28;20243;-78
2021/06/15 17:49:30;;;;;;;5.32;2.70;;;;;27.90;101271.00;;;;10489990;28;20193;-78
2021/06/15 17:54:32;;;;;;;5.22;2.50;;;;;27.70;101276.00;;;;10490351;28;20205;-78
2021/06/15 17:59:34;;;;;;;6.97;2.60;;;;;27.60;101271.00;;;;10524026;28;20276;-78
2021/06/15 18:04:41;;;;;;;4.35;2.85;;;;;27.40;101270.00;;;;10489409;28;20192;-78
2021/06/15 18:09:43;;;;;;;6.10;3.60;;;;;27.10;101267.00;;;;10511556;28;20236;-78
2021/06/15 18:14:46;;;;;;;6.75;3.22;;;;;26.90;101264.00;;;;10496600;28;20299;-78
2021/06/15 18:19:48;;;;;;;4.40;2.78;;;;;26.70;101264.00;;;;10512424;28;20197;-78
2021/06/15 18:24:50;;;;;;;9.80;2.97;;;;;26.30;101276.00;;;;10496355;28;20185;-78
2021/06/15 18:29:53;;;;;;;6.97;3.00;;;;;26.00;101274.00;;;;10512729;28;20197;-77
2021/06/15 18:34:55;;;;;;;9.25;3.67;;;;;25.80;101275.00;;;;10512153;28;20225;-77
2021/06/15 18:39:57;;;;;;;5.78;2.88;;;;;25.50;101261.00;;;;10546771;28;20556;-78
2021/06/15 18:44:59;;;;;;;4.57;3.08;;;;;25.30;101270.00;;;;10494984;28;20189;-77
2021/06/15 18:50:02;;;;;;;5.38;2.95;;;;;25.10;101263.00;;;;10478658;28;20238;-78
2021/06/15 18:55:11;;;;;;;3.17;2.55;;;;;24.90;101257.00;;;;10529251;28;20205;-78
2021/06/15 19:00:15;;;;;;;7.28;2.88;;;;;24.80;101263.00;;;;10469161;28;20214;-78
2021/06/15 19:05:18;;;;;;;4.13;2.70;;;;;24.70;101254.00;;;;10485322;28;20541;-78
2021/06/15 19:10:21;;;;;;;7.57;2.63;;;;;24.60;101257.00;;;;10469292;28;20644;-78
2021/06/15 19:15:22;;;;;;;4.63;2.53;;;;;24.40;101261.00;;;;10436529;28;20236;-78
2021/06/15 19:20:25;;;;;;;5.47;2.60;;;;;24.40;101265.00;;;;10452688;28;20304;-78
2021/06/15 19:25:27;;;;;;;4.18;2.30;;;;;24.40;101257.00;;;;10502049;28;20195;-78
2021/06/15 19:30:30;;;;;;;5.07;2.60;;;;;24.10;101263.00;;;;10493498;28;20254;-78
2021/06/15 19:35:32;;;;;;;7.22;2.38;;;;;23.80;101260.00;;;;10493406;28;20307;-78
2021/06/15 19:40:34;;;;;;;3.90;2.60;;;;;23.50;101262.00;;;;10493551;28;20200;-78
2021/06/15 19:45:36;;;;;;;7.20;2.55;;;;;23.20;101258.00;;;;10526333;28;20192;-78
2021/06/15 19:50:38;;;;;;;3.60;2.30;;;;;22.90;101262.00;;;;10493488;28;20199;-78
2021/06/15 19:55:48;;;;;;;4.18;2.63;;;;;22.70;101267.00;;;;10507459;28;20209;-78
2021/06/15 20:00:50;;;;;;;6.63;2.80;;;;;22.50;101278.00;;;;10467658;28;20236;-78
2021/06/15 20:05:53;;;;;;;8.98;3.20;;;;;22.30;101271.00;;;;10483537;28;20201;-78
2021/06/15 20:10:54;;;;;;;3.83;2.40;;;;;22.10;101282.00;;;;10484527;28;20189;-77
2021/06/15 20:15:57;;;;;;;3.47;2.72;;;;;21.90;101277.00;;;;10466455;28;20671;-78
2021/06/15 20:21:05;;;;;;;5.25;2.60;;;;;21.80;101283.00;;;;10434398;28;20194;-78
2021/06/15 20:26:08;;;;;;;6.20;2.70;;;;;21.60;101287.00;;;;10466959;28;20272;-78
2021/06/15 20:31:10;;;;;;;8.77;3.03;;;;;21.50;101282.00;;;;10482615;28;20205;-78
2021/06/15 20:36:12;;;;;;;3.25;2.85;;;;;21.30;101282.00;;;;10449456;28;20225;-78
2021/06/15 20:41:14;;;;;;;5.80;2.67;;;;;21.10;101282.00;;;;10449288;28;20201;-78
2021/06/15 20:46:16;;;;;;;4.80;2.72;;;;;21.00;101285.00;;;;10483305;28;20194;-77
2021/06/15 20:51:18;;;;;;;10.05;2.78;;;;;20.90;101284.00;;;;10448537;28;20237;-78
2021/06/15 20:56:20;;;;;;;3.20;2.78;;;;;20.80;101279.00;;;;10433054;28;20193;-77
2021/06/15 21:01:22;;;;;;;6.13;3.10;;;;;20.70;101276.00;;;;10449667;28;20194;-78
2021/06/15 21:06:25;;;;;;;4.95;2.60;;;;;20.60;101286.00;;;;10482474;28;20200;-78
2021/06/15 21:11:27;;;;;;;8.23;3.05;;;;;20.50;101278.00;;;;10449472;28;20748;-77
2021/06/15 21:16:29;;;;;;;7.25;3.63;;;;;20.40;101280.00;;;;10449773;28;20194;-78
2021/06/15 21:21:31;;;;;;;7.63;2.80;;;;;20.30;101282.00;;;;10451232;28;20534;-78
2021/06/15 21:26:33;;;;;;;6.18;2.70;;;;;20.10;101286.00;;;;10449881;28;20655;-78
2021/06/15 21:31:35;;;;;;;7.28;2.85;;;;;20.00;101287.00;;;;10448818;28;20229;-78
2021/06/15 21:36:37;;;;;;;5.28;3.15;;;;;20.00;101295.00;;;;10448761;28;20209;-78
2021/06/15 21:41:39;;;;;;;9.80;3.15;;;;;19.90;101286.00;;;;10451064;28;20194;-78
2021/06/15 21:46:45;;;;;;;9.45;3.35;;;;;19.80;101293.00;;;;10505475;28;20193;-78
2021/06/15 21:51:47;;;;;;;8.93;2.97;;;;;19.80;101285.00;;;;10514056;28;20683;-78
2021/06/15 21:56:49;;;;;;;7.85;2.90;;;;;19.70;101270.00;;;;10490149;28;20660;-78
2021/06/15 22:01:50;;;;;;;5.75;2.80;;;;;19.60;101277.00;;;;10472691;28;20185;-78
2021/06/15 22:06:53;;;;;;;5.65;2.65;;;;;19.50;101277.00;;;;10439611;28;20198;-78
2021/06/15 22:11:54;;;;;;;5.65;3.25;;;;;19.40;101277.00;;;;10472149;28;20564;-78
2021/06/15 22:17:03;;;;;;;5.25;2.83;;;;;19.30;101271.00;;;;10472629;28;20205;-78
2021/06/15 22:22:05;;;;;;;6.47;3.28;;;;;19.20;101273.00;;;;10488440;28;20194;-78
2021/06/15 22:27:07;;;;;;;6.18;3.05;;;;;19.00;101269.00;;;;10476978;28;20207;-77
2021/06/15 22:32:10;;;;;;;4.95;2.72;;;;;18.90;101255.00;;;;10471371;28;20221;-77
2021/06/15 22:37:12;;;;;;;5.53;3.05;;;;;18.90;101257.00;;;;10505820;28;20209;-77
2021/06/15 22:42:14;;;;;;;6.90;3.00;;;;;18.90;101256.00;;;;10488667;28;20194;-77
2021/06/15 22:47:16;;;;;;;4.95;2.42;;;;;18.90;101253.00;;;;10437292;28;20197;-78
2021/06/15 22:52:17;;;;;;;4.72;3.03;;;;;18.80;101241.00;;;;10470525;28;20204;-78
2021/06/15 22:57:19;;;;;;;5.28;2.90;;;;;18.70;101245.00;;;;10471030;28;20201;-78
2021/06/15 23:02:21;;;;;;;8.00;3.00;;;;;18.60;101252.00;;;;10453586;28;20253;-78
2021/06/15 23:07:23;;;;;;;6.73;3.40;;;;;18.50;101241.00;;;;10486711;28;20288;-78
2021/06/15 23:12:27;;;;;;;4.87;2.83;;;;;18.30;101239.00;;;;10453391;28;20216;-78
2021/06/15 23:17:29;;;;;;;5.97;2.60;;;;;18.20;101245.00;;;;10471221;28;20193;-78
2021/06/15 23:22:31;;;;;;;10.33;3.63;;;;;18.10;101242.00;;;;10469814;28;20194;-78
2021/06/15 23:27:33;;;;;;;6.43;3.20;;;;;18.00;101237.00;;;;10452307;28;20205;-77
2021/06/15 23:32:35;;;;;;;7.10;3.30;;;;;18.00;101241.00;;;;10469989;28;20225;-78
2021/06/15 23:37:37;;;;;;;7.13;3.70;;;;;17.80;101236.00;;;;10486049;28;20204;-78
2021/06/15 23:42:39;;;;;;;8.70;2.93;;;;;17.80;101234.00;;;;10502856;28;20186;-77
2021/06/15 23:47:41;;;;;;;7.30;3.00;;;;;17.70;101225.00;;;;10470145;28;20208;-78
2021/06/15 23:52:43;;;;;;;8.90;3.17;;;;;17.60;101227.00;;;;10469338;28;20266;-77
2021/06/15 23:57:45;;;;;;;5.43;3.03;;;;;17.60;101224.00;;;;10469112;28;20292;-78
